Time;durP1;ratioP1;P1;durP2;ratioP2;P2;SDS_P1;SDS_P2;PMS_P1;PMS_P2;Temp;Humidity;BMP_temperature;BMP_pressure;BME280_temperature;BME280_humidity;BME280_pressure;Samples;Min_cycle;Max_cycle;Signal;HPM_P1;HPM_P2
2020/12/23 00:00:13;;;;;;;9.47;5.53;;;9.10;99.90;;;;;;4379927;32;20163;-74
2020/12/23 00:02:43;;;;;;;8.33;5.80;;;8.90;99.90;;;;;;4381374;32;20170;-74
2020/12/23 00:05:13;;;;;;;8.33;5.00;;;8.90;99.90;;;;;;4380611;32;20469;-74
2020/12/23 00:07:40;;;;;;;4.13;2.97;;;8.80;99.90;;;;;;4380044;32;20519;-74
2020/12/23 00:10:07;;;;;;;3.87;3.00;;;8.60;99.90;;;;;;4379869;32;20137;-74
2020/12/23 00:12:34;;;;;;;4.77;2.60;;;8.50;99.90;;;;;;4379685;32;20150;-74
2020/12/23 00:15:01;;;;;;;3.57;2.30;;;8.40;99.90;;;;;;4379389;32;20329;-74
2020/12/23 00:17:27;;;;;;;4.07;2.60;;;8.40;99.90;;;;;;4379629;32;20211;-74
2020/12/23 00:19:53;;;;;;;2.77;2.00;;;8.30;99.90;;;;;;4381067;32;20172;-74
2020/12/23 00:22:20;;;;;;;2.23;1.50;;;8.30;99.90;;;;;;4380012;32;20149;-74
2020/12/23 00:24:46;;;;;;;2.33;1.37;;;8.20;99.90;;;;;;4379663;32;20542;-74
2020/12/23 00:27:13;;;;;;;3.10;1.33;;;8.10;99.90;;;;;;4379525;32;20173;-74
2020/12/23 00:29:39;;;;;;;2.60;1.60;;;8.10;99.90;;;;;;4380862;32;20181;-74
2020/12/23 00:32:06;;;;;;;2.63;1.40;;;8.00;99.90;;;;;;4380384;32;20208;-74
2020/12/23 00:34:33;;;;;;;3.07;1.30;;;8.00;99.90;;;;;;4380342;32;20548;-74
2020/12/23 00:37:00;;;;;;;2.23;1.10;;;8.00;99.90;;;;;;4379477;32;20530;-74
2020/12/23 00:39:27;;;;;;;1.73;1.10;;;8.00;99.90;;;;;;4380401;32;20230;-74
2020/12/23 00:41:53;;;;;;;1.93;1.10;;;7.90;99.90;;;;;;4379351;32;20144;-74
2020/12/23 00:44:20;;;;;;;2.50;1.00;;;7.90;99.90;;;;;;4379500;32;20155;-74
2020/12/23 00:46:46;;;;;;;1.33;0.93;;;7.80;99.90;;;;;;4365215;32;20231;-74
2020/12/23 00:49:13;;;;;;;1.53;1.00;;;7.80;99.90;;;;;;4379321;32;20163;-74
2020/12/23 00:51:40;;;;;;;1.37;1.00;;;7.80;99.90;;;;;;4379274;32;20165;-74
2020/12/23 00:54:06;;;;;;;1.87;1.10;;;7.80;99.90;;;;;;4379174;32;20243;-75
2020/12/23 00:56:32;;;;;;;1.70;1.30;;;7.80;99.90;;;;;;4379165;32;20151;-74
2020/12/23 00:58:59;;;;;;;2.67;1.00;;;7.80;99.90;;;;;;4379249;32;20194;-74
2020/12/23 01:01:25;;;;;;;1.60;0.90;;;7.80;99.90;;;;;;4379037;32;20149;-74
2020/12/23 01:03:52;;;;;;;1.47;1.30;;;7.80;99.90;;;;;;4380247;32;20155;-74
2020/12/23 01:06:18;;;;;;;0.97;0.80;;;7.70;99.90;;;;;;4379429;32;20154;-74
2020/12/23 01:08:45;;;;;;;1.10;0.90;;;7.70;99.90;;;;;;4378843;32;20202;-74
2020/12/23 01:11:12;;;;;;;1.00;0.80;;;7.70;99.90;;;;;;4378755;32;20190;-75
2020/12/23 01:13:39;;;;;;;1.47;0.90;;;7.70;99.90;;;;;;4378989;32;20195;-74
2020/12/23 01:16:06;;;;;;;2.97;1.00;;;7.70;99.90;;;;;;4378340;32;20234;-75
2020/12/23 01:18:33;;;;;;;1.43;1.10;;;7.70;99.90;;;;;;4379007;32;20191;-75
2020/12/23 01:20:59;;;;;;;1.90;1.27;;;7.70;99.90;;;;;;4379044;32;20136;-74
2020/12/23 01:23:26;;;;;;;1.20;1.00;;;7.60;99.90;;;;;;4378896;32;20144;-74
2020/12/23 01:25:53;;;;;;;2.43;1.00;;;7.60;99.90;;;;;;4379051;32;20332;-74
2020/12/23 01:28:20;;;;;;;1.23;1.00;;;7.60;99.90;;;;;;4379900;32;20150;-74
2020/12/23 01:30:47;;;;;;;1.73;1.20;;;7.60;99.90;;;;;;4378908;32;20172;-74
2020/12/23 01:33:14;;;;;;;1.60;1.10;;;7.60;99.90;;;;;;4379051;32;20141;-75
2020/12/23 01:35:41;;;;;;;1.30;0.97;;;7.60;99.90;;;;;;4378920;32;20142;-75
2020/12/23 01:38:07;;;;;;;1.67;1.17;;;7.60;99.90;;;;;;4379757;32;20171;-75
2020/12/23 01:40:34;;;;;;;1.13;0.83;;;7.60;99.90;;;;;;4381868;32;20142;-75
2020/12/23 01:43:00;;;;;;;2.33;1.20;;;7.50;99.90;;;;;;4381928;32;20148;-74
2020/12/23 01:45:27;;;;;;;1.90;1.10;;;7.50;99.90;;;;;;4381910;32;20490;-74
2020/12/23 01:47:57;;;;;;;1.70;1.00;;;7.50;99.90;;;;;;4382917;32;20179;-75
2020/12/23 01:50:23;;;;;;;1.40;1.20;;;7.50;99.90;;;;;;4381645;32;20419;-75
2020/12/23 01:52:53;;;;;;;1.53;1.10;;;7.50;99.90;;;;;;4381754;32;20203;-75
2020/12/23 01:55:19;;;;;;;1.47;1.00;;;7.50;99.90;;;;;;4381898;32;20150;-75
2020/12/23 01:57:46;;;;;;;2.27;1.10;;;7.50;99.90;;;;;;4383179;32;20139;-75
2020/12/23 02:00:12;;;;;;;2.37;1.20;;;7.50;99.90;;;;;;4381512;32;20201;-75
2020/12/23 02:02:42;;;;;;;1.03;0.93;;;7.50;99.90;;;;;;4381597;32;20141;-75
2020/12/23 02:05:10;;;;;;;3.10;1.93;;;7.50;99.90;;;;;;4381563;32;20144;-75
2020/12/23 02:07:37;;;;;;;3.07;1.87;;;7.50;99.90;;;;;;4381565;32;20190;-76
2020/12/23 02:10:07;;;;;;;3.23;1.10;;;7.50;99.90;;;;;;4382477;32;20402;-75
2020/12/23 02:12:34;;;;;;;1.30;0.80;;;7.50;99.90;;;;;;4381718;32;20162;-75
2020/12/23 02:15:11;;;;;;;1.90;1.10;;;7.50;99.90;;;;;;4381445;32;20189;-75
2020/12/23 02:17:38;;;;;;;1.20;0.97;;;7.50;99.90;;;;;;4381237;32;20524;-74
2020/12/23 02:20:07;;;;;;;1.77;0.90;;;7.60;99.90;;;;;;4382753;32;20463;-76
2020/12/23 02:22:34;;;;;;;1.33;1.03;;;7.60;99.90;;;;;;4382133;32;20494;-76
2020/12/23 02:25:00;;;;;;;2.53;1.20;;;7.60;99.90;;;;;;4382224;32;20246;-75
2020/12/23 02:27:27;;;;;;;2.10;1.20;;;7.50;99.90;;;;;;4381353;32;20168;-76
2020/12/23 02:29:55;;;;;;;2.43;1.27;;;7.50;99.90;;;;;;4381451;32;20137;-76
2020/12/23 02:32:23;;;;;;;2.17;1.40;;;7.50;99.90;;;;;;4381203;32;20205;-75
2020/12/23 02:34:50;;;;;;;2.57;1.50;;;7.50;99.90;;;;;;4381167;32;20211;-75
2020/12/23 02:37:17;;;;;;;3.03;1.93;;;7.40;99.90;;;;;;4382061;32;20185;-77
2020/12/23 02:39:46;;;;;;;3.23;2.03;;;7.40;99.90;;;;;;4382556;32;20132;-77
2020/12/23 02:42:13;;;;;;;2.73;2.20;;;7.40;99.90;;;;;;4381573;32;20213;-75
2020/12/23 02:44:41;;;;;;;3.97;2.30;;;7.50;99.90;;;;;;4381072;32;20464;-76
2020/12/23 02:47:10;;;;;;;3.27;2.13;;;7.40;99.90;;;;;;4381017;32;20200;-75
2020/12/23 02:49:37;;;;;;;4.00;2.33;;;7.40;99.90;;;;;;4380629;32;20221;-76
2020/12/23 02:52:04;;;;;;;3.33;2.43;;;7.30;99.90;;;;;;4381159;32;20164;-76
2020/12/23 02:54:30;;;;;;;4.40;2.60;;;7.40;99.90;;;;;;4380855;32;20152;-75
2020/12/23 02:56:57;;;;;;;2.93;2.37;;;7.20;99.90;;;;;;4382318;32;20235;-76
2020/12/23 02:59:23;;;;;;;6.63;2.80;;;7.20;99.90;;;;;;4381534;32;20170;-75
2020/12/23 03:01:50;;;;;;;2.67;2.30;;;7.30;99.90;;;;;;4380813;32;20143;-75
2020/12/23 03:04:16;;;;;;;4.70;3.10;;;7.30;99.90;;;;;;4380818;32;20531;-75
2020/12/23 03:06:43;;;;;;;4.53;3.10;;;7.30;99.90;;;;;;4382111;32;20144;-75
2020/12/23 03:09:11;;;;;;;6.37;3.60;;;7.30;99.90;;;;;;4382096;32;20458;-75
2020/12/23 03:11:38;;;;;;;7.53;4.50;;;7.30;99.90;;;;;;4380754;32;20133;-76
2020/12/23 03:14:05;;;;;;;9.20;6.40;;;7.20;99.90;;;;;;4380757;32;20156;-76
2020/12/23 03:16:32;;;;;;;9.93;6.83;;;7.20;99.90;;;;;;4381547;32;20561;-75
2020/12/23 03:18:59;;;;;;;9.33;5.80;;;7.20;99.90;;;;;;4382083;32;20356;-76
2020/12/23 03:21:25;;;;;;;9.90;5.13;;;7.10;99.90;;;;;;4380448;32;20143;-76
2020/12/23 03:23:52;;;;;;;7.73;4.97;;;7.20;99.90;;;;;;4379783;32;20165;-76
2020/12/23 03:26:18;;;;;;;6.53;4.27;;;7.10;99.90;;;;;;4380518;32;20209;-76
2020/12/23 03:28:45;;;;;;;6.50;3.90;;;7.10;99.90;;;;;;4380354;32;20175;-76
2020/12/23 03:31:12;;;;;;;5.87;3.70;;;7.10;99.90;;;;;;4380442;32;20145;-76
2020/12/23 03:33:38;;;;;;;5.70;3.10;;;7.00;99.90;;;;;;4380351;32;20208;-76
2020/12/23 03:36:05;;;;;;;8.33;4.20;;;7.00;99.90;;;;;;4366923;32;20195;-75
2020/12/23 03:38:32;;;;;;;5.00;2.97;;;7.10;99.90;;;;;;4381448;32;20180;-75
2020/12/23 03:40:58;;;;;;;5.17;3.40;;;7.10;99.90;;;;;;4380259;32;20185;-75
2020/12/23 03:43:25;;;;;;;4.47;3.07;;;7.00;99.90;;;;;;4380227;32;20167;-76
2020/12/23 03:45:51;;;;;;;4.70;2.80;;;7.00;99.90;;;;;;4380089;32;20501;-76
2020/12/23 03:48:18;;;;;;;6.40;2.90;;;7.00;99.90;;;;;;4380189;32;20141;-75
2020/12/23 03:50:45;;;;;;;4.57;3.30;;;7.10;99.90;;;;;;4380537;32;20151;-76
2020/12/23 03:53:12;;;;;;;4.57;2.80;;;7.10;99.90;;;;;;4380102;32;20167;-76
2020/12/23 03:55:39;;;;;;;4.50;3.10;;;7.00;99.90;;;;;;4379908;32;20197;-76
2020/12/23 03:58:06;;;;;;;4.83;2.60;;;7.00;99.90;;;;;;4379996;32;20171;-76
2020/12/23 04:00:32;;;;;;;4.57;2.80;;;6.90;99.90;;;;;;4379684;32;20211;-76
2020/12/23 04:02:59;;;;;;;5.10;2.40;;;6.90;99.90;;;;;;4379954;32;20211;-75
2020/12/23 04:05:37;;;;;;;3.33;2.17;;;6.80;99.90;;;;;;4379979;32;20181;-75
2020/12/23 04:08:04;;;;;;;4.60;2.40;;;6.80;99.90;;;;;;4381317;32;20144;-75
2020/12/23 04:10:31;;;;;;;3.10;2.07;;;6.80;99.90;;;;;;4379869;32;20160;-76
2020/12/23 04:12:58;;;;;;;4.77;2.17;;;6.80;99.90;;;;;;4379799;32;20390;-75
2020/12/23 04:15:24;;;;;;;4.23;2.30;;;6.70;99.90;;;;;;4379888;32;20506;-75
2020/12/23 04:17:52;;;;;;;6.40;2.80;;;6.60;99.90;;;;;;4379593;32;20178;-75
2020/12/23 04:20:18;;;;;;;3.57;2.23;;;6.50;99.90;;;;;;4379904;32;20164;-75
2020/12/23 04:22:45;;;;;;;5.03;2.10;;;6.50;99.90;;;;;;4379055;32;20137;-75
2020/12/23 04:25:12;;;;;;;5.43;2.30;;;6.40;99.90;;;;;;4379866;32;20200;-75
2020/12/23 04:27:39;;;;;;;4.43;2.30;;;6.30;99.90;;;;;;4381309;32;20158;-75
2020/12/23 04:30:08;;;;;;;3.77;2.27;;;6.30;99.90;;;;;;4379576;32;20176;-75
2020/12/23 04:32:35;;;;;;;3.00;1.97;;;6.30;99.90;;;;;;4381065;32;20466;-75
2020/12/23 04:35:03;;;;;;;3.23;2.07;;;6.30;99.90;;;;;;4379427;32;20218;-75
2020/12/23 04:37:31;;;;;;;3.27;2.10;;;6.30;99.90;;;;;;4379551;32;20550;-75
2020/12/23 04:39:58;;;;;;;4.97;2.23;;;6.30;99.90;;;;;;4379491;32;20231;-75
2020/12/23 04:42:25;;;;;;;3.80;2.40;;;6.20;99.90;;;;;;4380328;32;20426;-75
2020/12/23 04:44:51;;;;;;;5.23;2.40;;;6.20;99.90;;;;;;4379321;32;20474;-75
2020/12/23 04:47:25;;;;;;;4.07;2.40;;;6.20;99.90;;;;;;4380783;32;20409;-75
2020/12/23 04:49:54;;;;;;;7.37;2.73;;;6.10;99.90;;;;;;4380346;32;20151;-75
2020/12/23 04:52:35;;;;;;;6.70;3.10;;;6.10;99.90;;;;;;4379318;32;20153;-75
2020/12/23 04:55:05;;;;;;;5.40;3.40;;;5.90;99.90;;;;;;4380583;32;20155;-75
2020/12/23 04:57:35;;;;;;;6.03;3.53;;;6.00;99.90;;;;;;4379255;32;20179;-75
2020/12/23 05:00:05;;;;;;;5.50;3.77;;;5.90;99.90;;;;;;4380647;32;20170;-75
2020/12/23 05:02:31;;;;;;;8.40;4.23;;;6.00;99.90;;;;;;4379176;32;20143;-75
2020/12/23 05:05:16;;;;;;;8.80;4.10;;;6.00;99.90;;;;;;4379168;32;20156;-74
2020/12/23 05:07:43;;;;;;;6.10;4.23;;;5.90;99.90;;;;;;4379139;32;20144;-75
2020/12/23 05:10:09;;;;;;;8.40;4.60;;;6.00;99.90;;;;;;4379236;32;20157;-75
2020/12/23 05:12:36;;;;;;;8.97;4.70;;;5.90;99.90;;;;;;4378890;32;20455;-75
2020/12/23 05:15:06;;;;;;;7.80;4.07;;;5.90;99.90;;;;;;4378932;32;20152;-75
2020/12/23 05:17:33;;;;;;;9.23;4.40;;;5.90;99.90;;;;;;4364728;32;20168;-75
2020/12/23 05:20:01;;;;;;;6.23;4.20;;;5.70;99.90;;;;;;4378834;32;20217;-75
2020/12/23 05:22:28;;;;;;;6.87;4.17;;;5.70;99.90;;;;;;4379071;32;20197;-74
2020/12/23 05:24:55;;;;;;;6.30;3.80;;;5.70;99.90;;;;;;4378941;32;20141;-75
2020/12/23 05:27:23;;;;;;;9.27;3.80;;;5.70;99.90;;;;;;4378971;32;20163;-74
2020/12/23 05:29:50;;;;;;;7.63;3.63;;;5.60;99.90;;;;;;4379009;32;20143;-74
2020/12/23 05:32:16;;;;;;;6.60;3.30;;;5.60;99.90;;;;;;4379145;32;20466;-74
2020/12/23 05:34:43;;;;;;;6.20;3.47;;;5.70;99.90;;;;;;4378729;32;20403;-74
2020/12/23 05:37:10;;;;;;;7.50;3.27;;;5.60;99.90;;;;;;4378849;32;20431;-74
2020/12/23 05:39:37;;;;;;;6.83;2.70;;;5.60;99.90;;;;;;4378946;32;20195;-74
2020/12/23 05:42:03;;;;;;;5.67;3.03;;;5.60;99.90;;;;;;4378796;32;20405;-74
2020/12/23 05:44:30;;;;;;;7.97;2.83;;;5.50;99.90;;;;;;4378322;32;20140;-75
2020/12/23 05:46:56;;;;;;;5.30;2.67;;;5.50;99.90;;;;;;4379620;32;20498;-74
2020/12/23 05:49:25;;;;;;;5.10;2.53;;;5.50;99.90;;;;;;4380170;32;20145;-75
2020/12/23 05:51:52;;;;;;;5.43;2.87;;;5.50;99.90;;;;;;4378712;32;20150;-75
2020/12/23 05:54:20;;;;;;;8.97;2.70;;;5.50;99.90;;;;;;4378791;32;20224;-75
2020/12/23 05:56:51;;;;;;;5.10;2.03;;;5.50;99.90;;;;;;4378843;32;20490;-74
2020/12/23 05:59:18;;;;;;;8.40;2.40;;;5.40;99.90;;;;;;4378862;32;20136;-74
2020/12/23 06:01:45;;;;;;;10.07;2.47;;;5.40;99.90;;;;;;4378878;32;20164;-74
2020/12/23 06:04:15;;;;;;;6.77;2.10;;;5.40;99.90;;;;;;4378691;32;20376;-74
2020/12/23 06:07:05;;;;;;;6.33;2.20;;;5.40;99.90;;;;;;4380104;32;20145;-74
2020/12/23 06:09:46;;;;;;;5.00;1.90;;;5.40;99.90;;;;;;4378563;32;20136;-75
2020/12/23 06:12:20;;;;;;;7.67;2.17;;;5.40;99.90;;;;;;4378700;32;20168;-74
2020/12/23 06:14:55;;;;;;;8.13;2.30;;;5.30;99.90;;;;;;4378479;32;20234;-75
2020/12/23 06:17:23;;;;;;;4.93;2.40;;;5.40;99.90;;;;;;4378993;32;20161;-74
2020/12/23 06:19:56;;;;;;;7.33;2.77;;;5.40;99.90;;;;;;4378744;32;20163;-74
2020/12/23 06:22:25;;;;;;;5.77;2.53;;;5.40;99.90;;;;;;4379825;32;20183;-74
2020/12/23 06:24:51;;;;;;;6.47;2.47;;;5.40;99.90;;;;;;4379422;32;20162;-74
2020/12/23 06:27:18;;;;;;;8.30;2.80;;;5.40;99.90;;;;;;4381011;32;20517;-74
2020/12/23 06:29:47;;;;;;;7.90;2.80;;;5.50;99.90;;;;;;4380842;32;20156;-74
2020/12/23 06:32:25;;;;;;;7.47;2.70;;;5.40;99.90;;;;;;4381793;32;20146;-74
2020/12/23 06:34:58;;;;;;;6.17;2.50;;;5.40;99.90;;;;;;4380906;32;20182;-75
2020/12/23 06:37:33;;;;;;;7.00;2.30;;;5.30;99.90;;;;;;4380988;32;20144;-74
2020/12/23 06:40:06;;;;;;;6.00;2.40;;;5.30;99.90;;;;;;4381057;32;20147;-74
2020/12/23 06:42:32;;;;;;;5.53;2.20;;;5.40;99.90;;;;;;4380298;32;20171;-74
2020/12/23 06:45:05;;;;;;;6.03;2.30;;;5.40;99.90;;;;;;4380539;32;20164;-73
2020/12/23 06:47:36;;;;;;;6.80;2.00;;;5.30;99.90;;;;;;4382274;32;20148;-74
2020/12/23 06:50:22;;;;;;;7.23;2.30;;;5.30;99.90;;;;;;4380656;32;20158;-74
2020/12/23 06:52:48;;;;;;;5.83;2.97;;;5.30;99.90;;;;;;4382459;32;20382;-74
2020/12/23 06:55:16;;;;;;;6.17;2.40;;;5.20;99.90;;;;;;4381541;32;20147;-74
2020/12/23 06:57:44;;;;;;;7.37;2.60;;;5.20;99.90;;;;;;4380736;32;20145;-74
2020/12/23 07:00:19;;;;;;;8.97;2.40;;;5.30;99.90;;;;;;4381694;32;20175;-74
2020/12/23 07:02:50;;;;;;;7.97;2.70;;;5.30;99.90;;;;;;4382145;32;20132;-73
2020/12/23 07:05:22;;;;;;;7.63;2.90;;;5.30;99.90;;;;;;4380504;32;20203;-73
2020/12/23 07:08:00;;;;;;;8.47;2.30;;;5.20;99.90;;;;;;4381481;32;20433;-74
2020/12/23 07:10:49;;;;;;;9.70;2.90;;;5.20;99.90;;;;;;4380322;32;20202;-74
2020/12/23 07:13:18;;;;;;;8.53;2.57;;;5.20;99.90;;;;;;4381202;32;20206;-73
2020/12/23 07:15:53;;;;;;;12.00;2.90;;;5.20;99.90;;;;;;4380123;32;20375;-73
2020/12/23 07:18:25;;;;;;;9.77;3.10;;;5.20;99.90;;;;;;4379679;32;20227;-75
2020/12/23 07:20:57;;;;;;;9.73;3.20;;;5.20;99.90;;;;;;4381627;32;20142;-74
2020/12/23 07:23:26;;;;;;;8.10;3.10;;;5.10;99.90;;;;;;4380412;32;20196;-74
2020/12/23 07:25:54;;;;;;;11.77;3.20;;;5.00;99.90;;;;;;4379751;32;20386;-72
2020/12/23 07:28:41;;;;;;;6.73;3.03;;;5.00;99.90;;;;;;4380276;32;20345;-73
2020/12/23 07:31:10;;;;;;;10.47;3.37;;;5.00;99.90;;;;;;4379981;32;20162;-73
2020/12/23 07:33:38;;;;;;;10.87;3.50;;;5.00;99.90;;;;;;4380170;32;20176;-74
2020/12/23 07:36:06;;;;;;;12.83;3.43;;;4.90;99.90;;;;;;4380635;32;20471;-74
2020/12/23 07:38:35;;;;;;;11.03;3.47;;;4.90;99.90;;;;;;4380039;32;20145;-73
2020/12/23 07:41:02;;;;;;;12.20;3.40;;;4.90;99.90;;;;;;4381602;32;20489;-73
2020/12/23 07:43:29;;;;;;;9.87;3.27;;;4.80;99.90;;;;;;4380143;32;20483;-72
2020/12/23 07:45:56;;;;;;;9.07;3.20;;;4.80;99.90;;;;;;4380028;32;20219;-73
2020/12/23 07:48:24;;;;;;;10.10;3.77;;;4.70;99.90;;;;;;4379843;32;20162;-72
2020/12/23 07:50:52;;;;;;;11.87;4.03;;;4.70;99.90;;;;;;4381567;32;20183;-72
2020/12/23 07:53:21;;;;;;;12.43;3.93;;;4.60;99.90;;;;;;4379769;32;20445;-72
2020/12/23 07:55:58;;;;;;;9.03;3.80;;;4.70;99.90;;;;;;4380161;32;20183;-73
2020/12/23 07:58:25;;;;;;;11.67;4.00;;;4.70;99.90;;;;;;4380555;32;20144;-72
2020/12/23 08:00:51;;;;;;;13.97;5.30;;;4.80;99.90;;;;;;4379540;32;20174;-73
2020/12/23 08:03:26;;;;;;;13.80;4.70;;;5.00;99.90;;;;;;4379649;32;20221;-74
2020/12/23 08:06:06;;;;;;;11.23;5.40;;;5.20;99.90;;;;;;4380346;32;20137;-72
2020/12/23 08:08:34;;;;;;;11.53;5.53;;;5.40;99.90;;;;;;4379511;32;20177;-73
2020/12/23 08:11:09;;;;;;;13.83;5.73;;;5.70;99.90;;;;;;4379939;32;20141;-72
2020/12/23 08:13:36;;;;;;;12.93;6.30;;;5.90;99.90;;;;;;4381210;32;20399;-72
2020/12/23 08:16:10;;;;;;;12.93;6.50;;;5.90;99.90;;;;;;4379205;32;20504;-73
2020/12/23 08:18:38;;;;;;;14.70;6.67;;;5.90;99.90;;;;;;4379567;32;20222;-72
2020/12/23 08:21:11;;;;;;;13.80;6.50;;;5.90;99.90;;;;;;4379284;32;20167;-72
2020/12/23 08:23:39;;;;;;;14.00;6.33;;;5.90;99.90;;;;;;4380999;32;20166;-72
2020/12/23 08:26:08;;;;;;;13.23;6.30;;;6.00;99.90;;;;;;4381127;32;20140;-72
2020/12/23 08:28:39;;;;;;;13.63;6.30;;;6.10;99.90;;;;;;4379616;32;20142;-72
2020/12/23 08:31:09;;;;;;;13.10;6.27;;;6.40;99.90;;;;;;4380965;32;20181;-72
2020/12/23 08:33:37;;;;;;;14.83;6.10;;;6.30;99.90;;;;;;4380140;32;20447;-73
2020/12/23 08:36:05;;;;;;;13.23;6.97;;;6.70;99.90;;;;;;4379211;32;20157;-72
2020/12/23 08:38:41;;;;;;;15.67;7.07;;;6.60;99.90;;;;;;4379995;32;20139;-72
2020/12/23 08:41:17;;;;;;;13.63;6.67;;;6.70;99.90;;;;;;4378998;32;20210;-72
2020/12/23 08:43:46;;;;;;;13.77;7.13;;;6.50;99.90;;;;;;4380142;32;20145;-73
2020/12/23 08:46:23;;;;;;;14.97;7.63;;;6.30;99.90;;;;;;4379276;32;20141;-72
2020/12/23 08:48:51;;;;;;;14.87;7.63;;;6.30;99.90;;;;;;4380221;32;20139;-72
2020/12/23 08:51:19;;;;;;;18.23;8.03;;;6.00;99.90;;;;;;4377551;32;20198;-72
2020/12/23 08:53:47;;;;;;;13.90;7.30;;;6.10;99.90;;;;;;4378863;32;20139;-72
2020/12/23 08:56:33;;;;;;;17.07;7.20;;;6.00;99.90;;;;;;4380426;32;20601;-72
2020/12/23 08:59:00;;;;;;;13.37;7.43;;;5.90;99.90;;;;;;4378891;32;20406;-73
2020/12/23 09:01:28;;;;;;;14.90;7.67;;;5.90;99.90;;;;;;4379011;32;20400;-72
2020/12/23 09:04:07;;;;;;;16.53;7.60;;;5.80;99.90;;;;;;4379033;32;20198;-72
2020/12/23 09:06:34;;;;;;;14.43;7.67;;;5.70;99.90;;;;;;4379047;32;20151;-73
2020/12/23 09:09:15;;;;;;;17.90;7.73;;;5.70;99.90;;;;;;4380390;32;20148;-72
2020/12/23 09:11:46;;;;;;;16.03;8.17;;;5.70;99.90;;;;;;4378786;32;20136;-73
2020/12/23 09:14:29;;;;;;;15.40;7.80;;;5.70;99.90;;;;;;4378902;32;20171;-72
2020/12/23 09:17:06;;;;;;;16.37;8.57;;;5.60;99.90;;;;;;4378681;32;20168;-72
2020/12/23 09:19:53;;;;;;;14.27;7.83;;;5.60;99.90;;;;;;4379162;32;20140;-72
2020/12/23 09:22:26;;;;;;;16.53;8.30;;;5.70;99.90;;;;;;4379661;32;20146;-72
2020/12/23 09:25:09;;;;;;;19.17;8.80;;;5.80;99.90;;;;;;4380377;32;20529;-73
2020/12/23 09:27:36;;;;;;;17.00;8.53;;;5.80;99.90;;;;;;4379048;32;20195;-71
2020/12/23 09:30:04;;;;;;;14.27;7.20;;;5.70;99.90;;;;;;4378928;32;20145;-72
2020/12/23 09:32:31;;;;;;;16.30;7.63;;;5.80;99.90;;;;;;4378826;32;20204;-73
2020/12/23 09:35:18;;;;;;;17.13;7.70;;;5.80;99.90;;;;;;4379084;32;20469;-72
2020/12/23 09:37:49;;;;;;;11.67;6.07;;;5.80;99.90;;;;;;4378966;32;20477;-72
2020/12/23 09:40:16;;;;;;;15.17;6.77;;;5.70;99.90;;;;;;4365290;32;20167;-72
2020/12/23 09:42:43;;;;;;;15.33;6.60;;;5.80;99.90;;;;;;4378634;32;20165;-72
2020/12/23 09:45:11;;;;;;;15.93;6.70;;;5.80;99.90;;;;;;4378793;32;20143;-72
2020/12/23 09:47:41;;;;;;;12.37;6.37;;;5.80;99.90;;;;;;4378538;32;20167;-73
2020/12/23 09:50:08;;;;;;;15.13;6.10;;;5.70;99.90;;;;;;4379202;32;20175;-73
2020/12/23 09:52:34;;;;;;;15.87;6.00;;;5.70;99.90;;;;;;4378500;32;20177;-73
2020/12/23 09:55:01;;;;;;;12.20;5.83;;;5.70;99.90;;;;;;4378310;32;20147;-72
2020/12/23 09:57:27;;;;;;;14.40;5.97;;;5.70;99.90;;;;;;4376679;32;20203;-73
2020/12/23 09:59:54;;;;;;;13.43;5.87;;;5.80;99.90;;;;;;4378614;32;20159;-73
2020/12/23 10:02:20;;;;;;;11.90;6.07;;;5.80;99.90;;;;;;4381097;32;20428;-72
2020/12/23 10:04:46;;;;;;;13.00;5.07;;;5.80;99.90;;;;;;4381697;32;20360;-71
2020/12/23 10:07:13;;;;;;;15.40;5.57;;;5.80;99.90;;;;;;4381487;32;20141;-72
2020/12/23 10:09:51;;;;;;;13.83;5.30;;;5.90;99.90;;;;;;4382841;32;20144;-72
2020/12/23 10:12:20;;;;;;;10.40;5.33;;;5.90;99.90;;;;;;4381344;32;20175;-73
2020/12/23 10:14:47;;;;;;;9.37;4.97;;;5.90;99.90;;;;;;4380692;32;20183;-73
2020/12/23 10:17:13;;;;;;;12.67;5.63;;;6.00;99.90;;;;;;4382601;32;20158;-72
2020/12/23 10:19:40;;;;;;;9.90;5.40;;;5.90;99.90;;;;;;4381338;32;20141;-72
2020/12/23 10:22:06;;;;;;;13.40;5.47;;;5.90;99.90;;;;;;4381286;32;20137;-72
2020/12/23 10:24:32;;;;;;;13.17;5.00;;;5.90;99.90;;;;;;4382115;32;20216;-72
2020/12/23 10:26:59;;;;;;;10.67;5.33;;;6.00;99.90;;;;;;4382093;32;20354;-73
2020/12/23 10:29:25;;;;;;;12.40;5.47;;;6.10;99.90;;;;;;4381342;32;20223;-73
2020/12/23 10:31:52;;;;;;;9.83;5.27;;;6.10;99.90;;;;;;4380543;32;20148;-73
2020/12/23 10:34:18;;;;;;;9.20;5.07;;;6.20;99.90;;;;;;4380911;32;20187;-73
2020/12/23 10:36:48;;;;;;;12.37;5.23;;;6.10;99.90;;;;;;4381003;32;20151;-73
2020/12/23 10:39:16;;;;;;;11.23;5.40;;;6.20;99.90;;;;;;4380996;32;20146;-73
2020/12/23 10:41:45;;;;;;;14.57;5.10;;;6.30;99.90;;;;;;4380272;32;20158;-73
2020/12/23 10:44:12;;;;;;;17.50;4.87;;;6.30;99.90;;;;;;4380813;32;20167;-72
2020/12/23 10:46:39;;;;;;;12.97;4.80;;;6.00;99.90;;;;;;4381593;32;20215;-72
2020/12/23 10:49:05;;;;;;;17.30;6.83;;;5.90;99.90;;;;;;4380697;32;20447;-72
2020/12/23 10:51:33;;;;;;;19.57;5.00;;;5.90;99.90;;;;;;4380740;32;20163;-72
2020/12/23 10:53:59;;;;;;;9.73;4.93;;;6.00;99.90;;;;;;4382166;32;20158;-72
2020/12/23 10:56:26;;;;;;;14.93;5.87;;;6.10;99.90;;;;;;4380510;32;20153;-72
2020/12/23 10:58:52;;;;;;;14.73;6.60;;;6.20;99.90;;;;;;4380724;32;20451;-72
2020/12/23 11:01:20;;;;;;;16.30;6.93;;;6.10;99.90;;;;;;4382198;32;20201;-73
2020/12/23 11:03:47;;;;;;;12.70;7.40;;;6.00;99.90;;;;;;4380435;32;20193;-72
2020/12/23 11:06:14;;;;;;;14.27;8.10;;;6.10;99.90;;;;;;4380121;32;20137;-73
2020/12/23 11:08:41;;;;;;;16.70;8.90;;;6.20;99.90;;;;;;4380589;32;20135;-74
2020/12/23 11:11:12;;;;;;;17.83;8.97;;;6.20;99.90;;;;;;4379731;32;20204;-73
2020/12/23 11:13:40;;;;;;;15.93;9.10;;;6.20;99.90;;;;;;4380495;32;20146;-72
2020/12/23 11:16:15;;;;;;;18.77;8.80;;;6.20;99.90;;;;;;4380452;32;20575;-73
2020/12/23 11:18:41;;;;;;;16.77;8.90;;;6.20;99.90;;;;;;4381269;32;20160;-72
2020/12/23 11:21:09;;;;;;;17.93;8.80;;;6.30;99.90;;;;;;4380669;32;20534;-72
2020/12/23 11:23:35;;;;;;;18.53;9.07;;;6.30;99.90;;;;;;4381817;32;20146;-73
2020/12/23 11:26:02;;;;;;;16.90;8.73;;;6.20;99.90;;;;;;4381651;32;20470;-72
2020/12/23 11:28:33;;;;;;;13.20;8.50;;;6.20;99.90;;;;;;4381425;32;20511;-72
2020/12/23 11:31:00;;;;;;;17.53;9.33;;;6.30;99.90;;;;;;4380423;32;20140;-73
2020/12/23 11:33:28;;;;;;;17.33;9.07;;;6.30;99.90;;;;;;4379931;32;20144;-73
2020/12/23 11:35:55;;;;;;;13.80;8.40;;;6.50;99.90;;;;;;4379839;32;20191;-72
2020/12/23 11:38:22;;;;;;;16.90;8.57;;;6.40;99.90;;;;;;4380172;32;20219;-72
2020/12/23 11:40:49;;;;;;;16.73;9.20;;;6.50;99.90;;;;;;4379532;32;20162;-73
2020/12/23 11:43:16;;;;;;;21.37;8.93;;;6.50;99.90;;;;;;4381426;32;20141;-72
2020/12/23 11:45:43;;;;;;;19.10;7.97;;;6.90;99.90;;;;;;4380080;32;20165;-73
2020/12/23 11:48:10;;;;;;;15.70;7.40;;;7.20;99.90;;;;;;4380004;32;20191;-73
2020/12/23 11:50:36;;;;;;;17.67;7.73;;;7.40;99.90;;;;;;4381230;32;20168;-74
2020/12/23 11:53:03;;;;;;;17.10;7.97;;;7.80;99.90;;;;;;4381547;32;20356;-74
2020/12/23 11:55:29;;;;;;;13.93;6.77;;;8.00;99.90;;;;;;4379894;32;20171;-72
2020/12/23 11:57:55;;;;;;;18.30;7.00;;;8.20;99.90;;;;;;4381086;32;20139;-73
2020/12/23 12:00:22;;;;;;;18.50;7.63;;;8.40;99.90;;;;;;4380151;32;20457;-73
2020/12/23 12:02:48;;;;;;;14.03;6.93;;;8.40;99.30;;;;;;4379500;32;20205;-73
2020/12/23 12:05:15;;;;;;;12.37;6.70;;;8.30;99.10;;;;;;4380796;32;20143;-73
2020/12/23 12:07:41;;;;;;;13.30;7.27;;;8.10;99.90;;;;;;4379621;32;20461;-72
2020/12/23 12:10:08;;;;;;;15.77;7.20;;;8.00;99.90;;;;;;4379835;32;20191;-73
2020/12/23 12:12:35;;;;;;;16.00;7.70;;;7.90;99.90;;;;;;4379629;32;20173;-73
2020/12/23 12:15:03;;;;;;;13.80;7.13;;;7.80;99.90;;;;;;4381039;32;20247;-73
2020/12/23 12:17:30;;;;;;;13.93;6.43;;;7.60;99.90;;;;;;4379333;32;20163;-72
2020/12/23 12:19:56;;;;;;;13.47;6.60;;;7.50;99.90;;;;;;4379531;32;20192;-73
2020/12/23 12:22:23;;;;;;;15.67;6.57;;;7.20;99.90;;;;;;4380421;32;20142;-73
2020/12/23 12:24:49;;;;;;;12.43;6.60;;;7.00;99.90;;;;;;4379502;32;20196;-73
2020/12/23 12:27:16;;;;;;;16.37;6.80;;;6.80;99.90;;;;;;4379085;32;20225;-73
2020/12/23 12:29:42;;;;;;;17.43;6.90;;;6.80;99.90;;;;;;4379404;32;20141;-72
2020/12/23 12:32:11;;;;;;;14.53;7.30;;;6.70;99.90;;;;;;4379380;32;20144;-72
2020/12/23 12:34:38;;;;;;;15.17;7.37;;;6.80;99.90;;;;;;4379050;32;20218;-74
2020/12/23 12:37:04;;;;;;;17.77;7.33;;;6.60;99.90;;;;;;4380313;32;20150;-73
2020/12/23 12:39:32;;;;;;;12.90;6.57;;;6.50;99.90;;;;;;4379246;32;20141;-72
2020/12/23 12:42:01;;;;;;;11.23;6.87;;;6.50;99.90;;;;;;4380590;32;20422;-73
2020/12/23 12:44:29;;;;;;;13.63;6.33;;;6.60;99.90;;;;;;4379239;32;20143;-73
2020/12/23 12:46:55;;;;;;;12.43;6.50;;;6.60;99.90;;;;;;4379332;32;20150;-73
2020/12/23 12:49:22;;;;;;;14.77;6.57;;;6.40;99.90;;;;;;4379293;32;20132;-72
2020/12/23 12:51:49;;;;;;;13.10;6.50;;;6.50;99.90;;;;;;4379284;32;20183;-73
2020/12/23 12:54:16;;;;;;;14.67;6.20;;;6.60;99.90;;;;;;4378498;32;20489;-73
2020/12/23 12:56:43;;;;;;;18.30;6.50;;;6.50;99.90;;;;;;4378562;32;20159;-73
2020/12/23 12:59:09;;;;;;;12.63;6.17;;;6.60;99.90;;;;;;4379350;32;20146;-73